sensor_id;sensor_type;location;lat;lon;timestamp;temperature;humidity
1880;DHT22;49285;49.002;8.390;2022-10-16T00:01:35;18.50;99.90
1880;DHT22;49285;49.002;8.390;2022-10-16T00:04:01;18.40;99.90
1880;DHT22;49285;49.002;8.390;2022-10-16T00:06:28;18.50;99.90
1880;DHT22;49285;49.002;8.390;2022-10-16T00:08:55;18.50;99.90
1880;DHT22;49285;49.002;8.390;2022-10-16T00:11:23;18.50;99.90
1880;DHT22;49285;49.002;8.390;2022-10-16T00:13:50;18.40;99.90
1880;DHT22;49285;49.002;8.390;2022-10-16T00:16:17;18.40;99.90
1880;DHT22;49285;49.002;8.390;2022-10-16T00:18:43;18.40;99.90
1880;DHT22;49285;49.002;8.390;2022-10-16T00:21:12;18.40;99.90
1880;DHT22;49285;49.002;8.390;2022-10-16T00:23:38;18.40;99.90
1880;DHT22;49285;49.002;8.390;2022-10-16T00:26:07;18.40;99.90
1880;DHT22;49285;49.002;8.390;2022-10-16T00:28:34;18.40;99.90
1880;DHT22;49285;49.002;8.390;2022-10-16T00:31:03;18.40;99.90
1880;DHT22;49285;49.002;8.390;2022-10-16T00:33:29;18.40;99.90
1880;DHT22;49285;49.002;8.390;2022-10-16T00:35:57;18.40;99.90
1880;DHT22;49285;49.002;8.390;2022-10-16T00:38:23;18.40;99.90
1880;DHT22;49285;49.002;8.390;2022-10-16T00:40:49;18.40;99.90
1880;DHT22;49285;49.002;8.390;2022-10-16T00:46:02;18.40;99.90
1880;DHT22;49285;49.002;8.390;2022-10-16T00:48:29;18.40;99.90
1880;DHT22;49285;49.002;8.390;2022-10-16T00:50:55;18.30;99.90
1880;DHT22;49285;49.002;8.390;2022-10-16T00:53:22;18.40;99.90
1880;DHT22;49285;49.002;8.390;2022-10-16T00:55:48;18.40;99.90
1880;DHT22;49285;49.002;8.390;2022-10-16T00:58:14;18.40;99.90
1880;DHT22;49285;49.002;8.390;2022-10-16T01:00:39;18.40;99.90
1880;DHT22;49285;49.002;8.390;2022-10-16T01:03:32;18.40;99.90
1880;DHT22;49285;49.002;8.390;2022-10-16T01:06:28;18.40;99.90
1880;DHT22;49285;49.002;8.390;2022-10-16T01:09:17;18.40;99.90
1880;DHT22;49285;49.002;8.390;2022-10-16T01:14:26;18.40;99.90
1880;DHT22;49285;49.002;8.390;2022-10-16T01:17:15;18.40;99.90
1880;DHT22;49285;49.002;8.390;2022-10-16T01:20:10;18.40;99.90
1880;DHT22;49285;49.002;8.390;2022-10-16T01:23:05;18.30;99.90
1880;DHT22;49285;49.002;8.390;2022-10-16T01:25:36;18.40;99.90
1880;DHT22;49285;49.002;8.390;2022-10-16T01:28:06;18.40;99.90
1880;DHT22;49285;49.002;8.390;2022-10-16T01:30:35;18.40;99.90
1880;DHT22;49285;49.002;8.390;2022-10-16T01:35:35;18.30;99.90
1880;DHT22;49285;49.002;8.390;2022-10-16T01:38:16;18.30;99.90
1880;DHT22;49285;49.002;8.390;2022-10-16T01:40:47;18.30;99.90
1880;DHT22;49285;49.002;8.390;2022-10-16T01:43:18;18.30;99.90
1880;DHT22;49285;49.002;8.390;2022-10-16T01:45:45;18.30;99.90
1880;DHT22;49285;49.002;8.390;2022-10-16T01:48:13;18.30;99.90
1880;DHT22;49285;49.002;8.390;2022-10-16T01:50:42;18.20;99.90
1880;DHT22;49285;49.002;8.390;2022-10-16T01:53:12;18.20;99.90
1880;DHT22;49285;49.002;8.390;2022-10-16T01:55:43;18.30;99.90
1880;DHT22;49285;49.002;8.390;2022-10-16T01:58:12;18.20;99.90
1880;DHT22;49285;49.002;8.390;2022-10-16T02:00:41;18.20;99.90
1880;DHT22;49285;49.002;8.390;2022-10-16T02:03:09;18.20;99.90
1880;DHT22;49285;49.002;8.390;2022-10-16T02:05:55;18.20;99.90
1880;DHT22;49285;49.002;8.390;2022-10-16T02:08:23;18.20;99.90
1880;DHT22;49285;49.002;8.390;2022-10-16T02:10:50;18.20;99.90
1880;DHT22;49285;49.002;8.390;2022-10-16T02:13:26;18.20;99.90
1880;DHT22;49285;49.002;8.390;2022-10-16T02:15:54;18.20;99.90
1880;DHT22;49285;49.002;8.390;2022-10-16T02:18:20;18.20;99.90
1880;DHT22;49285;49.002;8.390;2022-10-16T02:20:57;18.10;99.90
1880;DHT22;49285;49.002;8.390;2022-10-16T02:26:17;18.10;99.90
1880;DHT22;49285;49.002;8.390;2022-10-16T02:28:52;18.10;99.90
1880;DHT22;49285;49.002;8.390;2022-10-16T02:31:24;18.10;99.90
1880;DHT22;49285;49.002;8.390;2022-10-16T02:33:53;18.10;99.90
1880;DHT22;49285;49.002;8.390;2022-10-16T02:36:20;18.10;99.90
1880;DHT22;49285;49.002;8.390;2022-10-16T02:38:46;18.10;99.90
1880;DHT22;49285;49.002;8.390;2022-10-16T02:41:12;18.10;99.90
1880;DHT22;49285;49.002;8.390;2022-10-16T02:43:37;18.10;99.90
1880;DHT22;49285;49.002;8.390;2022-10-16T02:46:03;18.10;99.90
1880;DHT22;49285;49.002;8.390;2022-10-16T02:48:29;18.10;99.90
1880;DHT22;49285;49.002;8.390;2022-10-16T02:50:54;18.10;99.90
1880;DHT22;49285;49.002;8.390;2022-10-16T02:53:20;18.10;99.90
1880;DHT22;49285;49.002;8.390;2022-10-16T02:55:45;18.10;99.90
1880;DHT22;49285;49.002;8.390;2022-10-16T02:58:11;18.10;99.90
1880;DHT22;49285;49.002;8.390;2022-10-16T03:00:36;18.10;99.90
1880;DHT22;49285;49.002;8.390;2022-10-16T03:03:02;18.10;99.90
1880;DHT22;49285;49.002;8.390;2022-10-16T03:05:27;18.10;99.90
1880;DHT22;49285;49.002;8.390;2022-10-16T03:07:53;18.10;99.90
1880;DHT22;49285;49.002;8.390;2022-10-16T03:10:19;18.10;99.90
1880;DHT22;49285;49.002;8.390;2022-10-16T03:12:44;18.10;99.90
1880;DHT22;49285;49.002;8.390;2022-10-16T03:15:10;18.10;99.90
1880;DHT22;49285;49.002;8.390;2022-10-16T03:17:35;18.10;99.90
1880;DHT22;49285;49.002;8.390;2022-10-16T03:20:01;18.10;99.90
1880;DHT22;49285;49.002;8.390;2022-10-16T03:22:27;18.10;99.90
1880;DHT22;49285;49.002;8.390;2022-10-16T03:24:52;18.10;99.90
1880;DHT22;49285;49.002;8.390;2022-10-16T03:27:18;18.10;99.90
1880;DHT22;49285;49.002;8.390;2022-10-16T03:29:43;18.10;99.90
1880;DHT22;49285;49.002;8.390;2022-10-16T03:32:09;18.10;99.90
1880;DHT22;49285;49.002;8.390;2022-10-16T03:34:34;18.10;99.90
1880;DHT22;49285;49.002;8.390;2022-10-16T03:37:00;18.10;99.90
1880;DHT22;49285;49.002;8.390;2022-10-16T03:39:26;18.10;99.90
1880;DHT22;49285;49.002;8.390;2022-10-16T03:41:52;18.00;99.90
1880;DHT22;49285;49.002;8.390;2022-10-16T03:44:17;18.00;99.90
1880;DHT22;49285;49.002;8.390;2022-10-16T03:46:43;18.00;99.90
1880;DHT22;49285;49.002;8.390;2022-10-16T03:49:09;18.00;99.90
1880;DHT22;49285;49.002;8.390;2022-10-16T03:51:34;18.00;99.90
1880;DHT22;49285;49.002;8.390;2022-10-16T03:54:00;18.00;99.90
1880;DHT22;49285;49.002;8.390;2022-10-16T03:56:25;18.00;99.90
1880;DHT22;49285;49.002;8.390;2022-10-16T03:58:51;18.00;99.90
1880;DHT22;49285;49.002;8.390;2022-10-16T04:01:17;18.00;99.90
1880;DHT22;49285;49.002;8.390;2022-10-16T04:03:42;18.00;99.90
1880;DHT22;49285;49.002;8.390;2022-10-16T04:06:08;18.00;99.90
1880;DHT22;49285;49.002;8.390;2022-10-16T04:08:34;18.00;99.90
1880;DHT22;49285;49.002;8.390;2022-10-16T04:11:02;18.00;99.90
1880;DHT22;49285;49.002;8.390;2022-10-16T04:13:27;18.00;99.90
1880;DHT22;49285;49.002;8.390;2022-10-16T04:15:53;18.00;99.90
1880;DHT22;49285;49.002;8.390;2022-10-16T04:18:18;18.00;99.90
1880;DHT22;49285;49.002;8.390;2022-10-16T04:20:44;18.00;99.90
1880;DHT22;49285;49.002;8.390;2022-10-16T04:23:10;18.00;99.90
1880;DHT22;49285;49.002;8.390;2022-10-16T04:25:35;18.00;99.90
1880;DHT22;49285;49.002;8.390;2022-10-16T04:28:01;18.00;99.90
1880;DHT22;49285;49.002;8.390;2022-10-16T04:30:26;18.00;99.90
1880;DHT22;49285;49.002;8.390;2022-10-16T04:32:52;18.00;99.90
1880;DHT22;49285;49.002;8.390;2022-10-16T04:35:19;18.00;99.90
1880;DHT22;49285;49.002;8.390;2022-10-16T04:37:45;18.00;99.90
1880;DHT22;49285;49.002;8.390;2022-10-16T04:40:11;18.00;99.90
1880;DHT22;49285;49.002;8.390;2022-10-16T04:42:36;18.00;99.90
1880;DHT22;49285;49.002;8.390;2022-10-16T04:45:03;18.00;99.90
1880;DHT22;49285;49.002;8.390;2022-10-16T04:47:29;18.00;99.90
1880;DHT22;49285;49.002;8.390;2022-10-16T04:49:54;18.00;99.90
1880;DHT22;49285;49.002;8.390;2022-10-16T04:52:20;18.00;99.90
1880;DHT22;49285;49.002;8.390;2022-10-16T04:54:46;17.90;99.90
1880;DHT22;49285;49.002;8.390;2022-10-16T04:57:12;17.90;99.90
1880;DHT22;49285;49.002;8.390;2022-10-16T04:59:38;17.90;99.90
1880;DHT22;49285;49.002;8.390;2022-10-16T05:02:03;18.00;99.90
1880;DHT22;49285;49.002;8.390;2022-10-16T05:04:29;18.00;99.90
1880;DHT22;49285;49.002;8.390;2022-10-16T05:06:54;18.00;99.90
1880;DHT22;49285;49.002;8.390;2022-10-16T05:09:20;18.00;99.90
1880;DHT22;49285;49.002;8.390;2022-10-16T05:11:46;18.00;99.90
1880;DHT22;49285;49.002;8.390;2022-10-16T05:14:11;18.00;99.90
1880;DHT22;49285;49.002;8.390;2022-10-16T05:16:37;18.00;99.90
1880;DHT22;49285;49.002;8.390;2022-10-16T05:19:02;17.90;99.90
1880;DHT22;49285;49.002;8.390;2022-10-16T05:21:28;17.90;99.90
1880;DHT22;49285;49.002;8.390;2022-10-16T05:23:53;17.90;99.90
1880;DHT22;49285;49.002;8.390;2022-10-16T05:26:20;17.90;99.90
1880;DHT22;49285;49.002;8.390;2022-10-16T05:28:46;17.90;99.90
1880;DHT22;49285;49.002;8.390;2022-10-16T05:31:12;17.90;99.90
1880;DHT22;49285;49.002;8.390;2022-10-16T05:33:37;17.90;99.90
1880;DHT22;49285;49.002;8.390;2022-10-16T05:36:04;17.90;99.90
1880;DHT22;49285;49.002;8.390;2022-10-16T05:38:31;17.90;99.90
1880;DHT22;49285;49.002;8.390;2022-10-16T05:40:56;17.90;99.90
1880;DHT22;49285;49.002;8.390;2022-10-16T05:43:23;17.80;99.90
1880;DHT22;49285;49.002;8.390;2022-10-16T05:46:00;17.80;99.90
1880;DHT22;49285;49.002;8.390;2022-10-16T05:48:26;17.80;99.90
1880;DHT22;49285;49.002;8.390;2022-10-16T05:51:00;17.80;99.90
1880;DHT22;49285;49.002;8.390;2022-10-16T05:53:31;17.80;99.90
1880;DHT22;49285;49.002;8.390;2022-10-16T05:55:57;17.80;99.90
1880;DHT22;49285;49.002;8.390;2022-10-16T05:58:24;17.80;99.90
1880;DHT22;49285;49.002;8.390;2022-10-16T06:00:56;17.80;99.90
1880;DHT22;49285;49.002;8.390;2022-10-16T06:03:22;17.80;99.90
1880;DHT22;49285;49.002;8.390;2022-10-16T06:05:48;17.80;99.90
1880;DHT22;49285;49.002;8.390;2022-10-16T06:08:14;17.80;99.90
1880;DHT22;49285;49.002;8.390;2022-10-16T06:10:40;17.70;99.90
1880;DHT22;49285;49.002;8.390;2022-10-16T06:13:05;17.80;99.90
1880;DHT22;49285;49.002;8.390;2022-10-16T06:15:31;17.70;99.90
1880;DHT22;49285;49.002;8.390;2022-10-16T06:17:56;17.80;99.90
1880;DHT22;49285;49.002;8.390;2022-10-16T06:20:22;17.70;99.90
1880;DHT22;49285;49.002;8.390;2022-10-16T06:22:47;17.70;99.90
1880;DHT22;49285;49.002;8.390;2022-10-16T06:25:13;17.70;99.90
1880;DHT22;49285;49.002;8.390;2022-10-16T06:27:41;17.70;99.90
1880;DHT22;49285;49.002;8.390;2022-10-16T06:30:07;17.80;99.90
1880;DHT22;49285;49.002;8.390;2022-10-16T06:32:33;17.80;99.90
1880;DHT22;49285;49.002;8.390;2022-10-16T06:34:59;17.80;99.90
1880;DHT22;49285;49.002;8.390;2022-10-16T06:37:24;17.80;99.90
1880;DHT22;49285;49.002;8.390;2022-10-16T06:39:50;17.80;99.90
1880;DHT22;49285;49.002;8.390;2022-10-16T06:42:18;17.80;99.90
1880;DHT22;49285;49.002;8.390;2022-10-16T06:44:44;17.80;99.90
1880;DHT22;49285;49.002;8.390;2022-10-16T06:47:10;17.80;99.90
1880;DHT22;49285;49.002;8.390;2022-10-16T06:49:35;17.90;99.90
1880;DHT22;49285;49.002;8.390;2022-10-16T06:52:01;17.90;99.90
1880;DHT22;49285;49.002;8.390;2022-10-16T06:54:27;17.90;99.90
1880;DHT22;49285;49.002;8.390;2022-10-16T06:56:53;17.90;99.90
1880;DHT22;49285;49.002;8.390;2022-10-16T06:59:20;17.90;99.90
1880;DHT22;49285;49.002;8.390;2022-10-16T07:01:46;18.00;99.90
1880;DHT22;49285;49.002;8.390;2022-10-16T07:04:12;18.00;99.90
1880;DHT22;49285;49.002;8.390;2022-10-16T07:06:38;18.00;99.90
1880;DHT22;49285;49.002;8.390;2022-10-16T07:09:06;18.10;99.90
1880;DHT22;49285;49.002;8.390;2022-10-16T07:11:32;18.10;99.90
1880;DHT22;49285;49.002;8.390;2022-10-16T07:13:58;18.20;99.90
1880;DHT22;49285;49.002;8.390;2022-10-16T07:16:26;18.20;99.90
1880;DHT22;49285;49.002;8.390;2022-10-16T07:18:57;18.20;99.90
1880;DHT22;49285;49.002;8.390;2022-10-16T07:21:25;18.30;99.90
1880;DHT22;49285;49.002;8.390;2022-10-16T07:23:53;18.30;99.90
1880;DHT22;49285;49.002;8.390;2022-10-16T07:26:19;18.30;99.90
1880;DHT22;49285;49.002;8.390;2022-10-16T07:28:44;18.30;99.90
1880;DHT22;49285;49.002;8.390;2022-10-16T07:31:12;18.30;99.90
1880;DHT22;49285;49.002;8.390;2022-10-16T07:33:40;18.40;99.90
1880;DHT22;49285;49.002;8.390;2022-10-16T07:36:10;18.40;99.90
1880;DHT22;49285;49.002;8.390;2022-10-16T07:38:36;18.40;99.90
1880;DHT22;49285;49.002;8.390;2022-10-16T07:41:04;18.40;99.90
1880;DHT22;49285;49.002;8.390;2022-10-16T07:43:31;18.40;99.90
1880;DHT22;49285;49.002;8.390;2022-10-16T07:45:57;18.50;99.90
1880;DHT22;49285;49.002;8.390;2022-10-16T07:48:24;18.50;99.90
1880;DHT22;49285;49.002;8.390;2022-10-16T07:50:51;18.60;99.90
1880;DHT22;49285;49.002;8.390;2022-10-16T07:53:17;18.70;99.90
1880;DHT22;49285;49.002;8.390;2022-10-16T07:55:43;18.70;99.90
1880;DHT22;49285;49.002;8.390;2022-10-16T07:58:08;18.70;99.90
1880;DHT22;49285;49.002;8.390;2022-10-16T08:00:36;18.80;99.90
1880;DHT22;49285;49.002;8.390;2022-10-16T08:03:02;18.80;99.90
1880;DHT22;49285;49.002;8.390;2022-10-16T08:05:32;18.80;99.90
1880;DHT22;49285;49.002;8.390;2022-10-16T08:07:58;18.90;99.90
1880;DHT22;49285;49.002;8.390;2022-10-16T08:10:26;18.90;99.90
1880;DHT22;49285;49.002;8.390;2022-10-16T08:12:52;18.90;99.90
1880;DHT22;49285;49.002;8.390;2022-10-16T08:15:18;19.00;99.90
1880;DHT22;49285;49.002;8.390;2022-10-16T08:17:44;19.00;99.90
1880;DHT22;49285;49.002;8.390;2022-10-16T08:20:11;19.00;99.90
1880;DHT22;49285;49.002;8.390;2022-10-16T08:22:36;19.00;99.90
1880;DHT22;49285;49.002;8.390;2022-10-16T08:25:02;19.10;99.90
1880;DHT22;49285;49.002;8.390;2022-10-16T08:27:32;19.10;99.90
1880;DHT22;49285;49.002;8.390;2022-10-16T08:29:57;19.20;99.90
1880;DHT22;49285;49.002;8.390;2022-10-16T08:32:23;19.30;99.90
1880;DHT22;49285;49.002;8.390;2022-10-16T08:34:48;19.30;99.90
1880;DHT22;49285;49.002;8.390;2022-10-16T08:37:14;19.30;99.90
1880;DHT22;49285;49.002;8.390;2022-10-16T08:39:40;19.40;99.90
1880;DHT22;49285;49.002;8.390;2022-10-16T08:42:47;19.50;99.90
1880;DHT22;49285;49.002;8.390;2022-10-16T08:48:09;19.60;99.90
1880;DHT22;49285;49.002;8.390;2022-10-16T08:50:37;19.60;99.90
1880;DHT22;49285;49.002;8.390;2022-10-16T08:53:04;19.60;99.90
1880;DHT22;49285;49.002;8.390;2022-10-16T08:58:16;19.70;99.90
1880;DHT22;49285;49.002;8.390;2022-10-16T09:00:46;19.70;99.90
1880;DHT22;49285;49.002;8.390;2022-10-16T09:03:54;19.80;99.90
1880;DHT22;49285;49.002;8.390;2022-10-16T09:22:45;19.80;99.90
1880;DHT22;49285;49.002;8.390;2022-10-16T09:25:17;19.90;99.90
1880;DHT22;49285;49.002;8.390;2022-10-16T09:27:46;19.90;99.90
1880;DHT22;49285;49.002;8.390;2022-10-16T09:30:21;19.90;99.90
1880;DHT22;49285;49.002;8.390;2022-10-16T09:32:49;19.70;99.90
1880;DHT22;49285;49.002;8.390;2022-10-16T09:35:31;19.60;99.90
1880;DHT22;49285;49.002;8.390;2022-10-16T09:37:58;19.60;99.90
1880;DHT22;49285;49.002;8.390;2022-10-16T09:40:32;19.50;99.90
1880;DHT22;49285;49.002;8.390;2022-10-16T09:43:15;19.60;99.90
1880;DHT22;49285;49.002;8.390;2022-10-16T09:45:53;19.70;99.90
1880;DHT22;49285;49.002;8.390;2022-10-16T09:48:19;19.90;99.90
1880;DHT22;49285;49.002;8.390;2022-10-16T09:50:59;19.90;99.90
1880;DHT22;49285;49.002;8.390;2022-10-16T09:53:37;20.00;99.90
1880;DHT22;49285;49.002;8.390;2022-10-16T09:56:03;20.10;99.90
1880;DHT22;49285;49.002;8.390;2022-10-16T09:58:31;20.10;99.90
1880;DHT22;49285;49.002;8.390;2022-10-16T10:00:58;20.20;99.90
1880;DHT22;49285;49.002;8.390;2022-10-16T10:03:34;20.20;99.90
1880;DHT22;49285;49.002;8.390;2022-10-16T10:06:06;20.30;99.90
1880;DHT22;49285;49.002;8.390;2022-10-16T10:08:33;20.30;99.90
1880;DHT22;49285;49.002;8.390;2022-10-16T10:10:58;20.30;99.90
1880;DHT22;49285;49.002;8.390;2022-10-16T10:13:24;20.30;99.90
1880;DHT22;49285;49.002;8.390;2022-10-16T10:15:55;20.30;99.90
1880;DHT22;49285;49.002;8.390;2022-10-16T10:18:31;20.30;99.90
1880;DHT22;49285;49.002;8.390;2022-10-16T10:21:02;20.20;99.90
1880;DHT22;49285;49.002;8.390;2022-10-16T10:23:29;20.10;99.90
1880;DHT22;49285;49.002;8.390;2022-10-16T10:26:16;20.10;99.90
1880;DHT22;49285;49.002;8.390;2022-10-16T10:31:33;20.20;99.90
1880;DHT22;49285;49.002;8.390;2022-10-16T10:40:24;20.30;99.90
1880;DHT22;49285;49.002;8.390;2022-10-16T10:42:59;20.40;99.90
1880;DHT22;49285;49.002;8.390;2022-10-16T10:48:13;20.60;99.90
1880;DHT22;49285;49.002;8.390;2022-10-16T10:50:49;20.70;99.90
1880;DHT22;49285;49.002;8.390;2022-10-16T10:56:14;21.00;99.90
1880;DHT22;49285;49.002;8.390;2022-10-16T10:58:54;21.20;99.90
1880;DHT22;49285;49.002;8.390;2022-10-16T11:05:10;21.50;99.90
1880;DHT22;49285;49.002;8.390;2022-10-16T11:07:25;21.70;99.90
1880;DHT22;49285;49.002;8.390;2022-10-16T11:09:59;21.80;99.90
1880;DHT22;49285;49.002;8.390;2022-10-16T11:12:38;21.70;99.90
1880;DHT22;49285;49.002;8.390;2022-10-16T11:15:15;21.90;99.90
1880;DHT22;49285;49.002;8.390;2022-10-16T11:18:15;21.90;99.90
1880;DHT22;49285;49.002;8.390;2022-10-16T11:20:49;22.10;99.90
1880;DHT22;49285;49.002;8.390;2022-10-16T11:25:50;22.30;99.90
1880;DHT22;49285;49.002;8.390;2022-10-16T11:28:32;22.50;99.90
1880;DHT22;49285;49.002;8.390;2022-10-16T11:31:16;22.60;99.90
1880;DHT22;49285;49.002;8.390;2022-10-16T11:33:54;22.70;99.90
1880;DHT22;49285;49.002;8.390;2022-10-16T11:36:35;22.80;99.90
1880;DHT22;49285;49.002;8.390;2022-10-16T11:39:26;22.90;99.90
1880;DHT22;49285;49.002;8.390;2022-10-16T11:42:11;23.00;99.90
1880;DHT22;49285;49.002;8.390;2022-10-16T11:45:00;23.10;99.90
1880;DHT22;49285;49.002;8.390;2022-10-16T11:47:44;23.00;99.90
1880;DHT22;49285;49.002;8.390;2022-10-16T11:55:56;23.50;99.90
1880;DHT22;49285;49.002;8.390;2022-10-16T11:58:35;23.50;99.90
1880;DHT22;49285;49.002;8.390;2022-10-16T12:03:46;23.90;99.90
1880;DHT22;49285;49.002;8.390;2022-10-16T12:08:55;23.90;99.90
1880;DHT22;49285;49.002;8.390;2022-10-16T12:16:57;24.00;99.90
1880;DHT22;49285;49.002;8.390;2022-10-16T12:19:25;23.90;99.90
1880;DHT22;49285;49.002;8.390;2022-10-16T12:21:52;23.80;99.90
1880;DHT22;49285;49.002;8.390;2022-10-16T12:24:33;23.90;99.90
1880;DHT22;49285;49.002;8.390;2022-10-16T12:27:00;23.80;99.90
1880;DHT22;49285;49.002;8.390;2022-10-16T12:29:38;23.80;99.90
1880;DHT22;49285;49.002;8.390;2022-10-16T12:34:51;23.80;99.90
1880;DHT22;49285;49.002;8.390;2022-10-16T12:37:22;24.00;99.90
1880;DHT22;49285;49.002;8.390;2022-10-16T12:39:49;24.10;99.90
1880;DHT22;49285;49.002;8.390;2022-10-16T12:42:23;24.20;99.90
1880;DHT22;49285;49.002;8.390;2022-10-16T12:44:48;24.20;99.90
1880;DHT22;49285;49.002;8.390;2022-10-16T12:49:55;24.10;99.90
1880;DHT22;49285;49.002;8.390;2022-10-16T12:52:35;24.10;99.90
1880;DHT22;49285;49.002;8.390;2022-10-16T12:55:01;24.10;99.90
1880;DHT22;49285;49.002;8.390;2022-10-16T13:00:24;24.00;99.90
1880;DHT22;49285;49.002;8.390;2022-10-16T13:03:23;23.90;99.90
1880;DHT22;49285;49.002;8.390;2022-10-16T13:11:49;23.70;99.90
1880;DHT22;49285;49.002;8.390;2022-10-16T13:17:54;23.40;99.90
1880;DHT22;49285;49.002;8.390;2022-10-16T13:20:38;23.30;99.90
1880;DHT22;49285;49.002;8.390;2022-10-16T13:23:15;23.30;99.90
1880;DHT22;49285;49.002;8.390;2022-10-16T13:28:09;23.20;99.90
1880;DHT22;49285;49.002;8.390;2022-10-16T13:30:52;23.20;99.90
1880;DHT22;49285;49.002;8.390;2022-10-16T13:33:27;23.20;99.90
1880;DHT22;49285;49.002;8.390;2022-10-16T13:35:56;23.20;99.90
1880;DHT22;49285;49.002;8.390;2022-10-16T13:38:27;23.20;99.90
1880;DHT22;49285;49.002;8.390;2022-10-16T13:41:05;23.20;99.90
1880;DHT22;49285;49.002;8.390;2022-10-16T13:43:40;23.10;99.90
1880;DHT22;49285;49.002;8.390;2022-10-16T13:46:10;23.00;99.90
1880;DHT22;49285;49.002;8.390;2022-10-16T13:48:36;23.00;99.90
1880;DHT22;49285;49.002;8.390;2022-10-16T13:53:39;22.90;99.90
1880;DHT22;49285;49.002;8.390;2022-10-16T13:56:09;22.90;99.90
1880;DHT22;49285;49.002;8.390;2022-10-16T13:58:35;22.90;99.90
1880;DHT22;49285;49.002;8.390;2022-10-16T14:01:06;22.80;99.90
1880;DHT22;49285;49.002;8.390;2022-10-16T14:03:41;22.80;99.90
1880;DHT22;49285;49.002;8.390;2022-10-16T14:06:12;22.70;99.90
1880;DHT22;49285;49.002;8.390;2022-10-16T14:08:43;22.70;99.90
1880;DHT22;49285;49.002;8.390;2022-10-16T14:11:10;22.70;99.90
1880;DHT22;49285;49.002;8.390;2022-10-16T14:13:43;22.60;99.90
1880;DHT22;49285;49.002;8.390;2022-10-16T14:16:15;22.60;99.90
1880;DHT22;49285;49.002;8.390;2022-10-16T14:18:45;22.60;99.90
1880;DHT22;49285;49.002;8.390;2022-10-16T14:21:13;22.60;99.90
1880;DHT22;49285;49.002;8.390;2022-10-16T14:23:41;22.60;99.90
1880;DHT22;49285;49.002;8.390;2022-10-16T14:28:37;22.70;99.90
1880;DHT22;49285;49.002;8.390;2022-10-16T14:33:45;23.20;99.90
1880;DHT22;49285;49.002;8.390;2022-10-16T14:36:13;23.30;99.90
1880;DHT22;49285;49.002;8.390;2022-10-16T14:38:41;23.40;99.90
1880;DHT22;49285;49.002;8.390;2022-10-16T14:41:08;23.50;99.90
1880;DHT22;49285;49.002;8.390;2022-10-16T14:43:37;23.60;99.90
1880;DHT22;49285;49.002;8.390;2022-10-16T14:46:14;23.80;99.90
1880;DHT22;49285;49.002;8.390;2022-10-16T14:48:42;23.90;99.90
1880;DHT22;49285;49.002;8.390;2022-10-16T14:51:14;24.00;99.90
1880;DHT22;49285;49.002;8.390;2022-10-16T14:53:40;24.00;99.90
1880;DHT22;49285;49.002;8.390;2022-10-16T14:56:19;24.00;99.90
1880;DHT22;49285;49.002;8.390;2022-10-16T14:58:45;24.00;99.90
1880;DHT22;49285;49.002;8.390;2022-10-16T15:01:11;24.00;99.90
1880;DHT22;49285;49.002;8.390;2022-10-16T15:03:38;24.00;99.90
1880;DHT22;49285;49.002;8.390;2022-10-16T15:06:10;24.00;99.90
1880;DHT22;49285;49.002;8.390;2022-10-16T15:08:36;23.90;99.90
1880;DHT22;49285;49.002;8.390;2022-10-16T15:11:02;23.80;99.90
1880;DHT22;49285;49.002;8.390;2022-10-16T15:13:28;23.80;99.90
1880;DHT22;49285;49.002;8.390;2022-10-16T15:15:54;23.80;99.90
1880;DHT22;49285;49.002;8.390;2022-10-16T15:18:19;23.80;99.90
1880;DHT22;49285;49.002;8.390;2022-10-16T15:20:48;23.70;99.90
1880;DHT22;49285;49.002;8.390;2022-10-16T15:23:17;23.70;99.90
1880;DHT22;49285;49.002;8.390;2022-10-16T15:25:50;23.70;99.90
1880;DHT22;49285;49.002;8.390;2022-10-16T15:28:17;23.60;99.90
1880;DHT22;49285;49.002;8.390;2022-10-16T15:30:44;23.70;99.90
1880;DHT22;49285;49.002;8.390;2022-10-16T15:33:18;23.60;99.90
1880;DHT22;49285;49.002;8.390;2022-10-16T15:35:47;23.60;99.90
1880;DHT22;49285;49.002;8.390;2022-10-16T15:38:16;23.50;99.90
1880;DHT22;49285;49.002;8.390;2022-10-16T15:40:42;23.50;99.90
1880;DHT22;49285;49.002;8.390;2022-10-16T15:43:08;23.50;99.90
1880;DHT22;49285;49.002;8.390;2022-10-16T15:45:34;23.40;99.90
1880;DHT22;49285;49.002;8.390;2022-10-16T15:48:00;23.30;99.90
1880;DHT22;49285;49.002;8.390;2022-10-16T15:50:25;23.30;99.90
1880;DHT22;49285;49.002;8.390;2022-10-16T15:52:51;23.20;99.90
1880;DHT22;49285;49.002;8.390;2022-10-16T15:55:17;23.20;99.90
1880;DHT22;49285;49.002;8.390;2022-10-16T15:57:45;23.10;99.90
1880;DHT22;49285;49.002;8.390;2022-10-16T16:00:13;23.10;99.90
1880;DHT22;49285;49.002;8.390;2022-10-16T16:02:39;23.10;99.90
1880;DHT22;49285;49.002;8.390;2022-10-16T16:05:06;23.00;99.90
1880;DHT22;49285;49.002;8.390;2022-10-16T16:07:34;23.00;99.90
1880;DHT22;49285;49.002;8.390;2022-10-16T16:09:59;22.90;99.90
1880;DHT22;49285;49.002;8.390;2022-10-16T16:12:25;22.80;99.90
1880;DHT22;49285;49.002;8.390;2022-10-16T16:14:50;22.80;99.90
1880;DHT22;49285;49.002;8.390;2022-10-16T16:17:16;22.70;99.90
1880;DHT22;49285;49.002;8.390;2022-10-16T16:19:42;22.70;99.90
1880;DHT22;49285;49.002;8.390;2022-10-16T16:22:08;22.60;99.90
1880;DHT22;49285;49.002;8.390;2022-10-16T16:24:33;22.50;99.90
1880;DHT22;49285;49.002;8.390;2022-10-16T16:26:59;22.50;99.90
1880;DHT22;49285;49.002;8.390;2022-10-16T16:29:24;22.40;99.90
1880;DHT22;49285;49.002;8.390;2022-10-16T16:31:53;22.30;99.90
1880;DHT22;49285;49.002;8.390;2022-10-16T16:34:24;22.30;99.90
1880;DHT22;49285;49.002;8.390;2022-10-16T16:36:50;22.20;99.90
1880;DHT22;49285;49.002;8.390;2022-10-16T16:39:16;22.10;99.90
1880;DHT22;49285;49.002;8.390;2022-10-16T16:41:42;22.10;99.90
1880;DHT22;49285;49.002;8.390;2022-10-16T16:44:11;22.00;99.90
1880;DHT22;49285;49.002;8.390;2022-10-16T16:46:37;21.90;99.90
1880;DHT22;49285;49.002;8.390;2022-10-16T16:49:05;21.80;99.90
1880;DHT22;49285;49.002;8.390;2022-10-16T16:51:31;21.80;99.90
1880;DHT22;49285;49.002;8.390;2022-10-16T16:53:57;21.70;99.90
1880;DHT22;49285;49.002;8.390;2022-10-16T16:56:23;21.70;99.90
1880;DHT22;49285;49.002;8.390;2022-10-16T16:58:51;21.60;99.90
1880;DHT22;49285;49.002;8.390;2022-10-16T17:01:17;21.60;99.90
1880;DHT22;49285;49.002;8.390;2022-10-16T17:03:44;21.50;99.90
1880;DHT22;49285;49.002;8.390;2022-10-16T17:06:11;21.40;99.90
1880;DHT22;49285;49.002;8.390;2022-10-16T17:08:38;21.40;99.90
1880;DHT22;49285;49.002;8.390;2022-10-16T17:11:05;21.40;99.90
1880;DHT22;49285;49.002;8.390;2022-10-16T17:13:33;21.30;99.90
1880;DHT22;49285;49.002;8.390;2022-10-16T17:16:01;21.20;99.90
1880;DHT22;49285;49.002;8.390;2022-10-16T17:18:27;21.20;99.90
1880;DHT22;49285;49.002;8.390;2022-10-16T17:20:52;21.20;99.90
1880;DHT22;49285;49.002;8.390;2022-10-16T17:23:19;21.10;99.90
1880;DHT22;49285;49.002;8.390;2022-10-16T17:25:45;21.10;99.90
1880;DHT22;49285;49.002;8.390;2022-10-16T17:28:11;21.00;99.90
1880;DHT22;49285;49.002;8.390;2022-10-16T17:30:39;21.00;99.90
1880;DHT22;49285;49.002;8.390;2022-10-16T17:33:06;21.00;99.90
1880;DHT22;49285;49.002;8.390;2022-10-16T17:35:38;20.90;99.90